createdAt,value
2023-11-06T00:00:53.689Z,89.26
2023-11-06T00:03:28.614Z,89.52
2023-11-06T00:06:00.001Z,89.78
2023-11-06T00:08:30.152Z,89.55
2023-11-06T00:10:59.938Z,89.51
2023-11-06T00:13:30.196Z,89.37
2023-11-06T00:16:00.428Z,88.01
2023-11-06T00:18:31.998Z,88.42
2023-11-06T00:21:05.786Z,89.10
2023-11-06T00:23:42.669Z,89.40
2023-11-06T00:26:16.617Z,88.18
2023-11-06T00:28:58.930Z,88.30
2023-11-06T00:31:40.694Z,89.59
2023-11-06T00:34:10.917Z,89.25
2023-11-06T00:36:43.006Z,90.49
2023-11-06T00:39:14.949Z,90.88
2023-11-06T00:41:45.632Z,91.33
2023-11-06T00:44:16.006Z,91.00
2023-11-06T00:46:47.012Z,91.44
2023-11-06T00:49:18.493Z,90.66
2023-11-06T00:51:51.898Z,90.97
2023-11-06T00:54:23.417Z,91.06
2023-11-06T00:56:54.117Z,91.78
2023-11-06T00:59:25.204Z,90.28
2023-11-06T01:01:57.794Z,91.19
2023-11-06T01:04:28.713Z,90.43
2023-11-06T01:06:59.844Z,91.19
2023-11-06T01:09:34.072Z,92.13
2023-11-06T01:12:05.836Z,92.33
2023-11-06T01:14:39.039Z,92.48
2023-11-06T01:17:10.940Z,92.53
2023-11-06T01:19:43.157Z,92.43
2023-11-06T01:22:14.076Z,90.69
2023-11-06T01:24:44.477Z,91.60
2023-11-06T01:27:24.662Z,92.33
2023-11-06T01:29:55.901Z,91.82
2023-11-06T01:32:26.945Z,90.75
2023-11-06T01:34:57.260Z,91.24
2023-11-06T01:37:30.773Z,92.18
2023-11-06T01:40:09.720Z,92.64
2023-11-06T01:42:42.089Z,93.05
2023-11-06T01:45:14.441Z,92.49
2023-11-06T01:47:50.079Z,93.23
2023-11-06T01:50:21.753Z,93.10
2023-11-06T01:52:53.229Z,93.15
2023-11-06T01:55:24.808Z,93.43
2023-11-06T01:57:55.479Z,93.61
2023-11-06T02:00:29.582Z,93.53
2023-11-06T02:03:04.188Z,93.87
2023-11-06T02:05:35.250Z,94.28
2023-11-06T02:08:07.248Z,94.59
2023-11-06T02:10:39.013Z,95.06
2023-11-06T02:13:09.090Z,95.40
2023-11-06T02:15:44.407Z,96.00
2023-11-06T02:18:15.279Z,96.10
2023-11-06T02:20:46.611Z,96.29
2023-11-06T02:23:17.214Z,96.44
2023-11-06T02:25:47.289Z,96.73
2023-11-06T02:28:18.356Z,97.05
2023-11-06T02:30:54.346Z,97.17
2023-11-06T02:33:26.021Z,97.38
2023-11-06T02:35:56.303Z,97.79
2023-11-06T02:38:26.205Z,97.85
2023-11-06T02:40:56.693Z,97.78
2023-11-06T02:43:27.171Z,97.96
2023-11-06T02:45:58.741Z,98.10
2023-11-06T02:48:28.810Z,98.30
2023-11-06T02:50:58.859Z,98.37
2023-11-06T02:53:29.367Z,98.24
2023-11-06T02:55:59.941Z,98.44
2023-11-06T02:58:32.124Z,98.60
2023-11-06T03:01:03.029Z,98.47
2023-11-06T03:03:34.851Z,98.72
2023-11-06T03:06:07.687Z,98.44
2023-11-06T03:08:38.320Z,98.10
2023-11-06T03:11:10.199Z,98.13
2023-11-06T03:13:40.510Z,98.36
2023-11-06T03:16:10.327Z,98.18
2023-11-06T03:18:43.856Z,98.06
2023-11-06T03:21:14.666Z,97.88
2023-11-06T03:23:44.605Z,97.57
2023-11-06T03:26:14.917Z,96.92
2023-11-06T03:28:44.715Z,97.13
2023-11-06T03:31:14.957Z,97.31
2023-11-06T03:33:45.523Z,97.35
2023-11-06T03:36:16.524Z,97.36
2023-11-06T03:38:46.281Z,97.49
2023-11-06T03:41:17.252Z,97.77
2023-11-06T03:43:54.186Z,98.00
2023-11-06T03:46:27.399Z,98.31
2023-11-06T03:48:57.414Z,98.38
2023-11-06T03:51:27.264Z,98.54
2023-11-06T03:53:58.420Z,98.43
2023-11-06T03:56:29.276Z,98.42
2023-11-06T03:59:00.058Z,98.40
2023-11-06T04:01:36.551Z,98.56
2023-11-06T04:04:08.675Z,98.56
2023-11-06T04:06:39.722Z,98.60
2023-11-06T04:09:10.482Z,98.58
2023-11-06T04:11:41.198Z,98.30
2023-11-06T04:14:13.652Z,98.25
2023-11-06T04:16:44.712Z,98.39
2023-11-06T04:19:15.280Z,98.65
2023-11-06T04:21:45.465Z,98.51
2023-11-06T04:24:15.329Z,98.65
2023-11-06T04:26:45.929Z,98.82
2023-11-06T04:29:16.840Z,99.00
2023-11-06T04:31:47.630Z,99.37
2023-11-06T04:34:17.412Z,99.49
2023-11-06T04:36:47.673Z,99.63
2023-11-06T04:39:19.535Z,99.62
2023-11-06T04:41:50.836Z,99.80
2023-11-06T04:44:21.006Z,99.95
2023-11-06T04:46:50.988Z,99.99
2023-11-06T04:49:21.652Z,99.99
2023-11-06T04:51:52.563Z,99.99
2023-11-06T04:54:24.674Z,99.90
2023-11-06T04:56:55.328Z,99.96
2023-11-06T04:59:26.331Z,99.88
2023-11-06T05:01:56.583Z,99.90
2023-11-06T05:04:27.806Z,99.99
2023-11-06T05:07:00.161Z,99.99
2023-11-06T05:09:30.949Z,99.99
2023-11-06T05:12:01.868Z,99.99
2023-11-06T05:14:32.706Z,99.99
2023-11-06T05:17:02.857Z,99.99
2023-11-06T05:19:33.704Z,99.99
2023-11-06T05:22:04.641Z,99.99
2023-11-06T05:24:37.186Z,99.99
2023-11-06T05:27:07.800Z,99.99
2023-11-06T05:29:38.142Z,99.99
2023-11-06T05:32:12.422Z,99.99
2023-11-06T05:34:44.223Z,99.99
2023-11-06T05:37:15.112Z,99.99
2023-11-06T05:39:47.908Z,99.99
2023-11-06T05:42:18.676Z,99.99
2023-11-06T05:44:49.713Z,99.99
2023-11-06T05:47:20.013Z,99.99
2023-11-06T05:49:49.849Z,99.99
2023-11-06T05:52:23.792Z,99.99
2023-11-06T05:54:57.858Z,99.99
2023-11-06T05:57:29.335Z,99.99
2023-11-06T05:59:59.491Z,99.99
2023-11-06T06:02:29.609Z,99.99
2023-11-06T06:05:00.487Z,99.99
2023-11-06T06:07:31.162Z,99.99
2023-11-06T06:10:01.293Z,99.99
2023-11-06T06:12:31.793Z,99.99
2023-11-06T06:15:04.392Z,99.99
2023-11-06T06:17:40.325Z,99.99
2023-11-06T06:20:15.015Z,99.99
2023-11-06T06:22:45.628Z,99.99
2023-11-06T06:25:15.555Z,99.99
2023-11-06T06:27:45.894Z,99.99
2023-11-06T06:30:17.263Z,99.99
2023-11-06T06:32:48.443Z,99.99
2023-11-06T06:35:19.638Z,99.99
2023-11-06T06:37:49.624Z,99.99
2023-11-06T06:40:19.888Z,99.99
2023-11-06T06:42:50.736Z,99.99
2023-11-06T06:45:21.446Z,99.99
2023-11-06T06:47:51.584Z,99.99
2023-11-06T06:50:23.713Z,99.99
2023-11-06T06:52:54.700Z,99.99
2023-11-06T06:55:27.072Z,99.99
2023-11-06T06:58:02.586Z,99.99
2023-11-06T07:00:36.120Z,99.99
2023-11-06T07:03:07.842Z,99.99
2023-11-06T07:05:40.286Z,99.99
2023-11-06T07:08:11.234Z,99.99
2023-11-06T07:10:41.248Z,99.99
2023-11-06T07:13:12.575Z,99.99
2023-11-06T07:15:43.049Z,99.99
2023-11-06T07:18:14.530Z,99.99
2023-11-06T07:20:44.673Z,99.99
2023-11-06T07:23:14.839Z,99.99
2023-11-06T07:25:45.789Z,99.99
2023-11-06T07:28:16.669Z,99.99
2023-11-06T07:30:47.598Z,99.99
2023-11-06T07:33:17.395Z,99.99
2023-11-06T07:35:48.078Z,99.99
2023-11-06T07:38:18.727Z,99.99
2023-11-06T07:40:49.389Z,99.99
2023-11-06T07:43:19.288Z,99.99
2023-11-06T07:45:49.574Z,99.99
2023-11-06T07:48:20.779Z,99.99
2023-11-06T07:50:52.780Z,99.99
2023-11-06T07:53:22.590Z,99.99
2023-11-06T07:55:53.050Z,99.99
2023-11-06T07:58:23.897Z,99.99
2023-11-06T08:00:55.131Z,99.99
2023-11-06T08:03:25.063Z,99.99
2023-11-06T08:05:55.226Z,99.99
2023-11-06T08:08:26.641Z,99.99
2023-11-06T08:10:56.691Z,99.99
2023-11-06T08:13:26.894Z,99.99
2023-11-06T08:15:56.289Z,99.99
2023-11-06T08:18:28.230Z,99.99
2023-11-06T08:21:00.530Z,99.99
2023-11-06T08:23:32.922Z,99.99
2023-11-06T08:26:03.312Z,99.99
2023-11-06T08:28:33.334Z,99.99
2023-11-06T08:31:05.948Z,99.99
2023-11-06T08:33:37.799Z,99.99
2023-11-06T08:36:08.303Z,99.99
2023-11-06T08:38:42.122Z,99.99
2023-11-06T08:41:12.992Z,99.99
2023-11-06T08:43:44.088Z,99.99
2023-11-06T08:46:14.550Z,99.99
2023-11-06T08:48:44.853Z,99.99
2023-11-06T08:51:15.826Z,99.99
2023-11-06T08:53:46.733Z,99.99
2023-11-06T08:56:23.228Z,99.99
2023-11-06T08:58:53.748Z,99.99
2023-11-06T09:01:23.925Z,99.99
2023-11-06T09:03:56.136Z,99.99
2023-11-06T09:06:26.321Z,99.99
2023-11-06T09:08:56.255Z,99.99
2023-11-06T09:11:27.771Z,99.99
2023-11-06T09:13:58.324Z,99.99
2023-11-06T09:16:31.065Z,99.99
2023-11-06T09:19:01.793Z,99.99
2023-11-06T09:21:31.893Z,99.99
2023-11-06T09:24:05.644Z,99.99
2023-11-06T09:26:36.483Z,99.99
2023-11-06T09:29:08.549Z,99.99
2023-11-06T09:31:39.748Z,99.99
2023-11-06T09:34:10.474Z,99.99
2023-11-06T09:36:40.317Z,99.99
2023-11-06T09:39:11.787Z,99.99
2023-11-06T09:41:43.304Z,99.99
2023-11-06T09:44:14.797Z,99.99
2023-11-06T09:46:45.874Z,99.99
2023-11-06T09:49:21.516Z,99.99
2023-11-06T09:51:54.573Z,99.99
2023-11-06T09:54:29.566Z,99.99
2023-11-06T09:57:00.239Z,99.99
2023-11-06T09:59:30.058Z,99.99
2023-11-06T10:02:01.901Z,99.99
2023-11-06T10:04:34.581Z,97.12
2023-11-06T10:07:06.947Z,88.95
2023-11-06T10:09:37.519Z,81.23
2023-11-06T10:12:27.566Z,76.03
2023-11-06T10:14:59.597Z,73.51
2023-11-06T10:17:30.019Z,71.49
2023-11-06T10:20:11.293Z,70.26
2023-11-06T10:22:53.432Z,70.80
2023-11-06T10:25:35.063Z,69.65
2023-11-06T10:28:19.920Z,69.58
2023-11-06T10:30:53.040Z,68.19
2023-11-06T10:33:25.093Z,69.38
2023-11-06T10:35:58.705Z,69.41
2023-11-06T10:38:35.590Z,69.65
2023-11-06T10:41:27.442Z,71.02
2023-11-06T10:44:03.478Z,71.39
2023-11-06T10:46:37.593Z,70.68
2023-11-06T10:49:21.856Z,71.43
2023-11-06T10:51:53.745Z,70.82
2023-11-06T10:54:31.101Z,71.49
2023-11-06T10:57:04.916Z,70.32
2023-11-06T10:59:35.177Z,72.72
2023-11-06T11:02:06.827Z,72.56
2023-11-06T11:04:39.254Z,73.67
2023-11-06T11:07:11.375Z,73.41
2023-11-06T11:09:42.646Z,72.99
2023-11-06T11:12:13.339Z,75.74
2023-11-06T11:14:44.183Z,79.27
2023-11-06T11:17:15.514Z,74.97
2023-11-06T11:19:54.379Z,72.76
2023-11-06T11:22:28.801Z,75.41
2023-11-06T11:25:02.064Z,73.71
2023-11-06T11:27:33.342Z,74.19
2023-11-06T11:30:03.746Z,75.11
2023-11-06T11:32:38.616Z,73.91
2023-11-06T11:35:13.086Z,73.24
2023-11-06T11:37:44.936Z,72.81
2023-11-06T11:40:15.832Z,69.42
2023-11-06T11:42:46.190Z,70.30
2023-11-06T11:45:33.933Z,71.11
2023-11-06T11:48:05.846Z,70.07
2023-11-06T11:50:41.123Z,69.86
2023-11-06T11:53:11.844Z,70.97
2023-11-06T11:55:42.780Z,67.98
2023-11-06T11:58:17.841Z,70.74
2023-11-06T12:00:48.065Z,67.01
2023-11-06T12:03:19.534Z,66.22
2023-11-06T12:05:59.658Z,65.78
2023-11-06T12:08:30.827Z,63.85
2023-11-06T12:11:13.379Z,66.56
2023-11-06T12:13:43.441Z,65.54
2023-11-06T12:16:15.029Z,64.51
2023-11-06T12:18:46.368Z,62.38
2023-11-06T12:21:20.188Z,64.45
2023-11-06T12:23:51.289Z,62.52
2023-11-06T12:26:21.629Z,63.36
2023-11-06T12:28:54.668Z,63.68
2023-11-06T12:31:27.446Z,63.15
2023-11-06T12:33:58.323Z,62.66
2023-11-06T12:36:31.860Z,62.29
2023-11-06T12:39:04.029Z,62.45
2023-11-06T12:41:34.664Z,64.88
2023-11-06T12:44:22.461Z,60.90
2023-11-06T12:47:01.618Z,60.65
2023-11-06T12:49:55.164Z,65.54
2023-11-06T12:52:28.980Z,61.81
2023-11-06T12:55:00.583Z,64.27
2023-11-06T12:57:31.578Z,58.18
2023-11-06T13:00:03.091Z,60.43
2023-11-06T13:02:35.407Z,59.48
2023-11-06T13:05:09.302Z,57.83
2023-11-06T13:07:45.347Z,58.73
2023-11-06T13:10:16.270Z,59.51
2023-11-06T13:12:46.726Z,59.99
2023-11-06T13:15:17.756Z,60.03
2023-11-06T13:17:48.486Z,56.87
2023-11-06T13:20:31.204Z,56.20
2023-11-06T13:23:02.032Z,57.56
2023-11-06T13:25:33.383Z,55.49
2023-11-06T13:28:04.828Z,53.96
2023-11-06T13:30:35.368Z,54.72
2023-11-06T13:33:09.539Z,54.55
2023-11-06T13:35:44.064Z,59.58
2023-11-06T13:38:15.045Z,54.88
2023-11-06T13:40:48.517Z,55.88
2023-11-06T13:43:21.347Z,55.71
2023-11-06T13:45:51.839Z,59.52
2023-11-06T13:48:22.779Z,56.38
2023-11-06T13:50:54.777Z,55.66
2023-11-06T13:53:25.490Z,57.54
2023-11-06T13:56:17.236Z,53.04
2023-11-06T13:58:49.078Z,56.78
2023-11-06T14:01:23.832Z,56.20
2023-11-06T14:03:54.390Z,60.45
2023-11-06T14:06:24.284Z,59.91
2023-11-06T14:08:58.491Z,55.67
2023-11-06T14:11:29.954Z,59.95
2023-11-06T14:14:08.281Z,57.41
2023-11-06T14:16:40.022Z,53.84
2023-11-06T14:19:10.461Z,54.93
2023-11-06T14:21:41.163Z,54.72
2023-11-06T14:24:12.619Z,57.83
2023-11-06T14:26:42.714Z,58.09
2023-11-06T14:29:18.397Z,59.08
2023-11-06T14:31:52.510Z,57.65
2023-11-06T14:34:22.640Z,59.25
2023-11-06T14:36:52.488Z,59.98
2023-11-06T14:39:23.236Z,60.25
2023-11-06T14:41:53.452Z,58.74
2023-11-06T14:44:25.460Z,58.31
2023-11-06T14:46:57.495Z,58.56
2023-11-06T14:49:27.904Z,57.86
2023-11-06T14:51:59.316Z,58.92
2023-11-06T14:54:31.599Z,58.23
2023-11-06T14:57:05.071Z,57.73
2023-11-06T14:59:44.304Z,57.44
2023-11-06T15:02:20.812Z,59.36
2023-11-06T15:04:53.732Z,58.56
2023-11-06T15:07:28.691Z,58.65
2023-11-06T15:10:01.019Z,57.13
2023-11-06T15:12:32.945Z,54.74
2023-11-06T15:15:03.604Z,54.44
2023-11-06T15:17:34.711Z,56.86
2023-11-06T15:20:07.701Z,57.18
2023-11-06T15:22:39.399Z,56.09
2023-11-06T15:25:14.423Z,54.31
2023-11-06T15:27:46.887Z,53.75
2023-11-06T15:30:20.125Z,59.26
2023-11-06T15:32:51.473Z,56.77
2023-11-06T15:35:24.768Z,55.44
2023-11-06T15:37:55.600Z,57.52
2023-11-06T15:40:29.034Z,53.13
2023-11-06T15:43:01.161Z,55.21
2023-11-06T15:45:32.067Z,58.05
2023-11-06T15:48:05.923Z,55.65
2023-11-06T15:50:43.862Z,54.86
2023-11-06T15:53:17.885Z,55.41
2023-11-06T15:55:49.476Z,54.96
2023-11-06T15:58:24.155Z,55.63
2023-11-06T16:00:55.029Z,55.58
2023-11-06T16:03:25.772Z,55.62
2023-11-06T16:05:58.368Z,54.44
2023-11-06T16:08:29.190Z,58.81
2023-11-06T16:10:59.908Z,60.61
2023-11-06T16:13:31.047Z,55.68
2023-11-06T16:16:01.879Z,55.91
2023-11-06T16:18:33.640Z,56.82
2023-11-06T16:21:04.941Z,58.29
2023-11-06T16:23:42.617Z,54.96
2023-11-06T16:26:13.352Z,56.67
2023-11-06T16:28:43.173Z,57.08
2023-11-06T16:31:15.543Z,58.43
2023-11-06T16:33:45.862Z,57.37
2023-11-06T16:36:18.155Z,58.57
2023-11-06T16:38:50.096Z,57.26
2023-11-06T16:41:21.498Z,62.19
2023-11-06T16:43:51.945Z,57.69
2023-11-06T16:46:22.885Z,58.21
2023-11-06T16:48:54.036Z,59.29
2023-11-06T16:51:24.418Z,60.02
2023-11-06T16:53:54.311Z,59.57
2023-11-06T16:56:25.420Z,62.28
2023-11-06T16:58:56.629Z,59.62
2023-11-06T17:01:33.473Z,58.51
2023-11-06T17:04:04.160Z,58.44
2023-11-06T17:06:36.451Z,59.10
2023-11-06T17:09:07.192Z,62.00
2023-11-06T17:11:37.126Z,60.42
2023-11-06T17:14:08.904Z,59.45
2023-11-06T17:16:39.345Z,61.57
2023-11-06T17:19:10.047Z,61.58
2023-11-06T17:21:41.298Z,58.33
2023-11-06T17:24:13.443Z,62.27
2023-11-06T17:26:44.149Z,59.15
2023-11-06T17:29:16.134Z,58.43
2023-11-06T17:31:47.219Z,59.69
2023-11-06T17:34:17.306Z,59.23
2023-11-06T17:36:48.384Z,60.13
2023-11-06T17:39:22.609Z,63.61
2023-11-06T17:41:54.777Z,59.59
2023-11-06T17:44:25.092Z,59.01
2023-11-06T17:46:55.326Z,58.69
2023-11-06T17:49:25.720Z,58.69
2023-11-06T17:51:56.313Z,59.62
2023-11-06T17:54:27.049Z,60.37
2023-11-06T17:56:58.192Z,59.83
2023-11-06T17:59:30.052Z,58.54
2023-11-06T18:02:02.948Z,60.47
2023-11-06T18:04:33.686Z,61.25
2023-11-06T18:07:07.125Z,61.55
2023-11-06T18:09:39.811Z,59.99
2023-11-06T18:12:10.305Z,57.62
2023-11-06T18:14:40.145Z,56.69
2023-11-06T18:17:11.495Z,57.25
2023-11-06T18:19:47.668Z,59.30
2023-11-06T18:22:20.892Z,57.62
2023-11-06T18:24:52.475Z,60.82
2023-11-06T18:27:23.065Z,57.86
2023-11-06T18:29:53.460Z,59.55
2023-11-06T18:32:25.930Z,59.00
2023-11-06T18:34:56.250Z,59.26
2023-11-06T18:37:26.831Z,56.75
2023-11-06T18:39:58.500Z,58.60
2023-11-06T18:42:29.634Z,58.02
2023-11-06T18:45:00.200Z,58.41
2023-11-06T18:47:30.556Z,59.78
2023-11-06T18:50:03.927Z,59.58
2023-11-06T18:52:34.727Z,58.06
2023-11-06T18:55:06.187Z,55.80
2023-11-06T18:57:36.996Z,56.82
2023-11-06T19:00:08.113Z,57.18
2023-11-06T19:02:40.548Z,53.08
2023-11-06T19:05:11.426Z,47.00
2023-11-06T19:07:41.747Z,45.25
2023-11-06T19:10:12.383Z,45.99
2023-11-06T19:12:43.278Z,46.91
2023-11-06T19:15:15.238Z,51.97
2023-11-06T19:17:46.836Z,52.22
2023-11-06T19:20:19.188Z,54.18
2023-11-06T19:22:50.668Z,56.05
2023-11-06T19:25:21.238Z,57.35
2023-11-06T19:27:51.472Z,55.67
2023-11-06T19:30:23.019Z,58.09
2023-11-06T19:32:53.574Z,58.52
2023-11-06T19:35:23.459Z,58.39
2023-11-06T19:37:55.417Z,58.65
2023-11-06T19:40:26.655Z,59.41
2023-11-06T19:42:58.930Z,56.01
2023-11-06T19:45:28.965Z,49.81
2023-11-06T19:47:59.623Z,53.40
2023-11-06T19:50:30.793Z,56.95
2023-11-06T19:53:00.687Z,59.82
2023-11-06T19:55:31.438Z,60.87
2023-11-06T19:58:02.472Z,60.71
2023-11-06T20:00:37.400Z,60.08
2023-11-06T20:03:07.387Z,60.97
2023-11-06T20:05:37.457Z,61.18
2023-11-06T20:08:09.799Z,61.56
2023-11-06T20:10:42.342Z,64.01
2023-11-06T20:13:12.356Z,64.58
2023-11-06T20:15:42.458Z,65.65
2023-11-06T20:18:13.481Z,66.44
2023-11-06T20:20:44.307Z,66.97
2023-11-06T20:23:15.245Z,67.40
2023-11-06T20:25:48.838Z,68.06
2023-11-06T20:28:21.424Z,68.11
2023-11-06T20:30:52.629Z,69.65
2023-11-06T20:33:24.692Z,70.49
2023-11-06T20:35:55.098Z,70.63
2023-11-06T20:38:26.588Z,71.68
2023-11-06T20:40:57.412Z,72.69
2023-11-06T20:43:27.265Z,72.59
2023-11-06T20:45:58.165Z,73.34
2023-11-06T20:48:29.044Z,73.71
2023-11-06T20:51:00.661Z,74.21
2023-11-06T20:53:47.764Z,74.69
2023-11-06T20:56:21.701Z,75.01
2023-11-06T20:58:52.724Z,75.75
2023-11-06T21:01:23.007Z,76.38
2023-11-06T21:03:54.692Z,77.22
2023-11-06T21:06:25.187Z,77.74
2023-11-06T21:08:56.114Z,77.42
2023-11-06T21:11:27.312Z,77.37
2023-11-06T21:13:57.565Z,77.64
2023-11-06T21:16:29.519Z,78.35
2023-11-06T21:19:00.813Z,79.05
2023-11-06T21:21:32.118Z,79.36
2023-11-06T21:24:05.957Z,79.58
2023-11-06T21:26:36.266Z,79.37
2023-11-06T21:29:06.580Z,79.73
2023-11-06T21:31:37.216Z,80.17
2023-11-06T21:34:10.125Z,80.88
2023-11-06T21:36:40.357Z,80.79
2023-11-06T21:39:10.821Z,81.46
2023-11-06T21:41:44.030Z,81.83
2023-11-06T21:44:15.149Z,82.08
2023-11-06T21:46:45.762Z,82.41
2023-11-06T21:49:16.153Z,82.51
2023-11-06T21:51:49.980Z,82.51
2023-11-06T21:54:21.181Z,83.54
2023-11-06T21:56:51.551Z,84.16
2023-11-06T21:59:22.291Z,84.05
2023-11-06T22:01:58.306Z,83.27
2023-11-06T22:04:30.001Z,83.79
2023-11-06T22:07:00.798Z,84.08
2023-11-06T22:09:31.063Z,84.34
2023-11-06T22:12:04.670Z,84.54
2023-11-06T22:14:43.646Z,85.06
2023-11-06T22:17:16.590Z,85.44
2023-11-06T22:19:48.262Z,85.57
2023-11-06T22:22:21.594Z,85.78
2023-11-06T22:24:53.636Z,86.01
2023-11-06T22:27:29.162Z,86.46
2023-11-06T22:29:59.518Z,85.66
2023-11-06T22:32:30.015Z,86.14
2023-11-06T22:35:00.701Z,86.44
2023-11-06T22:37:30.561Z,86.78
2023-11-06T22:40:00.925Z,87.20
2023-11-06T22:42:33.105Z,87.58
2023-11-06T22:45:03.584Z,88.22
2023-11-06T22:47:33.649Z,88.85
2023-11-06T22:50:05.825Z,89.72
2023-11-06T22:52:37.316Z,90.07
2023-11-06T22:55:08.927Z,90.42
2023-11-06T22:57:39.493Z,90.25
2023-11-06T23:00:23.987Z,90.34
2023-11-06T23:02:58.472Z,90.72
2023-11-06T23:05:29.377Z,90.86
2023-11-06T23:08:00.314Z,91.02
2023-11-06T23:10:30.676Z,90.95
2023-11-06T23:13:02.269Z,90.71
2023-11-06T23:15:36.045Z,90.78
2023-11-06T23:18:08.511Z,90.95
2023-11-06T23:20:41.366Z,91.26
2023-11-06T23:23:13.873Z,91.43
2023-11-06T23:25:46.276Z,91.62
2023-11-06T23:28:17.535Z,91.53
2023-11-06T23:30:48.815Z,91.51
2023-11-06T23:33:50.897Z,91.69
2023-11-06T23:36:22.275Z,91.97
2023-11-06T23:38:53.208Z,92.48
2023-11-06T23:41:36.188Z,92.97
2023-11-06T23:44:13.439Z,93.30
2023-11-06T23:46:49.070Z,93.72
2023-11-06T23:52:53.364Z,94.00
2023-11-06T23:55:24.127Z,94.41
2023-11-06T23:57:54.525Z,94.85
